Time;durP1;ratioP1;P1;durP2;ratioP2;P2;SDS_P1;SDS_P2;PMS_P1;PMS_P2;Temp;Humidity;BMP_temperature;BMP_pressure;BME280_temperature;BME280_humidity;BME280_pressure;Samples;Min_cycle;Max_cycle;Signal;HPM_P1;HPM_P2
2023/12/27 00:00:29;;;;;;;9.10;1.63;;;3.10;99.90;;;;;;4983711;28;20038;-58
2023/12/27 00:02:55;;;;;;;4.05;1.40;;;3.10;99.90;;;;;;4985483;28;20117;-58
2023/12/27 00:05:21;;;;;;;5.03;1.60;;;3.10;99.90;;;;;;4984886;28;20038;-61
2023/12/27 00:07:47;;;;;;;4.90;1.65;;;3.10;99.90;;;;;;4981943;28;20456;-61
2023/12/27 00:10:12;;;;;;;8.00;1.52;;;3.10;99.90;;;;;;4986662;28;20026;-61
2023/12/27 00:12:38;;;;;;;8.27;1.52;;;3.10;99.90;;;;;;4985198;28;20492;-61
2023/12/27 00:15:07;;;;;;;10.32;1.77;;;3.10;99.90;;;;;;4984095;28;20034;-58
2023/12/27 00:17:32;;;;;;;10.30;1.80;;;3.10;99.90;;;;;;5000147;28;20029;-61
2023/12/27 00:19:58;;;;;;;7.78;1.17;;;3.10;99.90;;;;;;4984039;28;20096;-61
2023/12/27 00:22:24;;;;;;;9.55;1.48;;;3.10;99.90;;;;;;4983984;28;20038;-59
2023/12/27 00:24:50;;;;;;;2.08;0.98;;;3.10;99.90;;;;;;4984267;28;20038;-59
2023/12/27 00:27:15;;;;;;;9.27;1.95;;;3.00;99.90;;;;;;4984492;28;20125;-61
2023/12/27 00:29:41;;;;;;;4.15;1.45;;;3.00;99.90;;;;;;4983745;28;20027;-61
2023/12/27 00:32:08;;;;;;;9.43;2.05;;;3.00;99.90;;;;;;4982834;28;20066;-60
2023/12/27 00:34:35;;;;;;;10.65;2.45;;;3.10;99.90;;;;;;4987418;28;20022;-61
2023/12/27 00:37:00;;;;;;;6.47;2.25;;;3.10;99.90;;;;;;4983236;28;20509;-59
2023/12/27 00:39:26;;;;;;;7.95;1.40;;;3.20;99.90;;;;;;4983585;28;20038;-59
2023/12/27 00:41:52;;;;;;;13.55;1.42;;;3.30;99.90;;;;;;4983781;28;20117;-62
2023/12/27 00:44:18;;;;;;;7.35;1.38;;;3.30;99.90;;;;;;4985050;28;20030;-60
2023/12/27 00:46:44;;;;;;;4.18;1.00;;;3.30;99.90;;;;;;4982923;28;20030;-62
2023/12/27 00:49:09;;;;;;;6.35;1.05;;;3.30;99.90;;;;;;4983192;28;20022;-62
2023/12/27 00:51:35;;;;;;;9.45;2.38;;;3.40;99.90;;;;;;4986247;28;20037;-61
2023/12/27 00:54:00;;;;;;;6.47;1.67;;;3.30;99.90;;;;;;4982981;28;20030;-60
2023/12/27 00:56:26;;;;;;;10.30;1.95;;;3.40;99.90;;;;;;4984526;28;20042;-61
2023/12/27 00:58:51;;;;;;;5.80;1.50;;;3.30;99.90;;;;;;4988701;28;20033;-61
2023/12/27 01:01:17;;;;;;;2.97;1.20;;;3.30;99.90;;;;;;4983544;28;20045;-61
2023/12/27 01:03:43;;;;;;;4.38;1.42;;;3.30;99.90;;;;;;4985626;28;20026;-60
2023/12/27 01:06:09;;;;;;;12.65;1.85;;;3.30;99.90;;;;;;4982374;28;20039;-59
2023/12/27 01:08:35;;;;;;;9.65;1.83;;;3.30;99.90;;;;;;4984644;28;20659;-60
2023/12/27 01:11:01;;;;;;;6.70;1.35;;;3.20;99.90;;;;;;4981286;28;20038;-60
2023/12/27 01:13:26;;;;;;;8.25;1.50;;;3.20;99.90;;;;;;4996861;28;20110;-62
2023/12/27 01:15:52;;;;;;;5.53;1.50;;;3.30;99.90;;;;;;4986422;28;20035;-61
2023/12/27 01:18:18;;;;;;;6.97;1.67;;;3.20;99.90;;;;;;4981875;28;20058;-60
2023/12/27 01:20:43;;;;;;;6.90;1.75;;;3.30;99.90;;;;;;4987984;28;20026;-62
2023/12/27 01:23:09;;;;;;;6.60;1.17;;;3.30;99.90;;;;;;4986099;28;20089;-62
2023/12/27 01:25:35;;;;;;;2.08;1.17;;;3.40;99.90;;;;;;4985654;28;20030;-62
2023/12/27 01:28:00;;;;;;;5.05;1.00;;;3.30;99.90;;;;;;4988263;28;20031;-62
2023/12/27 01:30:26;;;;;;;8.57;1.50;;;3.30;99.90;;;;;;4990030;28;20113;-61
2023/12/27 01:32:51;;;;;;;8.70;1.30;;;3.30;99.90;;;;;;4987015;28;20072;-62
2023/12/27 01:35:17;;;;;;;7.97;1.90;;;3.30;99.90;;;;;;4987310;28;20610;-60
2023/12/27 01:37:43;;;;;;;7.43;1.10;;;3.30;99.90;;;;;;4985687;28;20097;-62
2023/12/27 01:40:09;;;;;;;8.35;1.40;;;3.30;99.90;;;;;;4986652;28;20035;-61
2023/12/27 01:42:34;;;;;;;4.70;0.95;;;3.20;99.90;;;;;;4985055;28;20574;-62
2023/12/27 01:45:00;;;;;;;5.53;1.42;;;3.10;99.90;;;;;;4985727;28;20403;-61
2023/12/27 01:47:26;;;;;;;3.28;1.13;;;3.10;99.90;;;;;;4999525;28;20050;-61
2023/12/27 01:49:53;;;;;;;5.10;1.10;;;3.10;99.90;;;;;;4984868;28;20230;-60
2023/12/27 01:52:18;;;;;;;7.13;1.33;;;3.10;99.90;;;;;;4985166;28;20030;-60
2023/12/27 01:54:44;;;;;;;4.22;1.30;;;3.00;99.90;;;;;;4986092;28;20645;-63
2023/12/27 01:57:10;;;;;;;4.80;1.25;;;3.00;99.90;;;;;;4987202;28;20030;-60
2023/12/27 01:59:36;;;;;;;3.45;1.63;;;3.00;99.90;;;;;;4983756;28;20041;-61
2023/12/27 02:02:01;;;;;;;2.58;0.77;;;2.90;99.90;;;;;;4986237;28;20065;-61
2023/12/27 02:04:27;;;;;;;8.75;1.48;;;2.80;99.90;;;;;;4986545;28;20045;-62
2023/12/27 02:06:54;;;;;;;2.53;1.05;;;2.80;99.90;;;;;;5000511;28;20076;-60
2023/12/27 02:09:19;;;;;;;3.28;0.85;;;2.70;99.90;;;;;;4986772;28;20126;-59
2023/12/27 02:11:45;;;;;;;7.70;1.30;;;2.70;99.90;;;;;;4986758;28;20109;-62
2023/12/27 02:14:11;;;;;;;7.72;1.40;;;2.70;99.90;;;;;;4987541;28;20034;-61
2023/12/27 02:16:37;;;;;;;1.40;0.95;;;2.60;99.90;;;;;;4985840;28;20438;-60
2023/12/27 02:19:05;;;;;;;6.75;1.35;;;2.60;99.90;;;;;;4987074;28;20138;-61
2023/12/27 02:21:32;;;;;;;4.32;0.98;;;2.60;99.90;;;;;;4984747;28;20114;-61
2023/12/27 02:24:00;;;;;;;10.15;1.77;;;2.50;99.90;;;;;;4987188;28;20026;-60
2023/12/27 02:26:26;;;;;;;6.15;1.45;;;2.50;99.90;;;;;;5002854;28;20112;-60
2023/12/27 02:28:52;;;;;;;6.78;0.93;;;2.50;99.90;;;;;;4986542;28;20110;-59
2023/12/27 02:31:19;;;;;;;3.47;1.13;;;2.40;99.90;;;;;;4985294;28;20065;-60
2023/12/27 02:33:45;;;;;;;2.45;1.20;;;2.40;99.90;;;;;;4986389;28;20423;-62
2023/12/27 02:36:11;;;;;;;4.13;0.90;;;2.40;99.90;;;;;;4987605;28;20042;-61
2023/12/27 02:38:36;;;;;;;5.50;1.38;;;2.30;99.90;;;;;;5002546;28;20038;-61
2023/12/27 02:41:02;;;;;;;7.78;1.35;;;2.30;99.90;;;;;;4988349;28;20037;-61
2023/12/27 02:43:28;;;;;;;6.72;1.42;;;2.30;99.90;;;;;;4986490;28;20053;-61
2023/12/27 02:45:53;;;;;;;5.38;1.48;;;2.30;99.90;;;;;;5003407;28;20071;-63
2023/12/27 02:48:19;;;;;;;7.40;1.55;;;2.30;99.90;;;;;;4985253;28;20034;-63
2023/12/27 02:50:45;;;;;;;5.32;0.93;;;2.20;99.90;;;;;;4987492;28;20117;-62
2023/12/27 02:53:11;;;;;;;7.50;1.25;;;2.20;99.90;;;;;;4985127;28;20084;-61
2023/12/27 02:55:36;;;;;;;5.68;1.23;;;2.20;99.90;;;;;;4986806;28;20038;-63
2023/12/27 02:58:03;;;;;;;5.32;1.38;;;2.30;99.90;;;;;;4986062;28;20030;-61
2023/12/27 03:00:34;;;;;;;5.60;1.25;;;2.30;99.90;;;;;;4994470;28;20062;-62
2023/12/27 03:03:00;;;;;;;5.82;1.75;;;2.20;99.90;;;;;;4987245;28;20034;-62
2023/12/27 03:05:26;;;;;;;7.80;1.90;;;2.20;99.90;;;;;;4985455;28;20058;-62
2023/12/27 03:07:52;;;;;;;2.45;1.15;;;2.20;99.90;;;;;;4986223;28;20058;-62
2023/12/27 03:10:17;;;;;;;8.45;1.90;;;2.20;99.90;;;;;;4988083;28;20031;-61
2023/12/27 03:12:43;;;;;;;3.33;1.35;;;2.10;99.90;;;;;;4986360;28;20057;-61
2023/12/27 03:15:09;;;;;;;2.72;1.17;;;2.20;99.90;;;;;;4987775;28;20413;-62
2023/12/27 03:17:34;;;;;;;5.45;1.42;;;2.10;99.90;;;;;;5003218;28;20035;-62
2023/12/27 03:20:00;;;;;;;6.53;1.50;;;2.20;99.90;;;;;;4981712;28;20065;-62
2023/12/27 03:22:25;;;;;;;3.38;1.33;;;2.10;99.90;;;;;;5004980;28;20088;-62
2023/12/27 03:24:51;;;;;;;4.18;1.40;;;2.10;99.90;;;;;;4984039;28;20018;-61
2023/12/27 03:27:16;;;;;;;8.00;1.52;;;2.10;99.90;;;;;;4985011;28;20044;-61
2023/12/27 03:29:42;;;;;;;6.68;1.38;;;2.10;99.90;;;;;;4985962;28;20084;-62
2023/12/27 03:32:08;;;;;;;10.88;1.63;;;2.00;99.90;;;;;;4985291;28;20035;-61
2023/12/27 03:34:33;;;;;;;5.75;1.38;;;2.00;99.90;;;;;;4984859;28;20034;-62
2023/12/27 03:36:59;;;;;;;4.32;1.20;;;2.00;99.90;;;;;;4984501;28;20065;-61
2023/12/27 03:39:24;;;;;;;6.30;1.48;;;2.00;99.90;;;;;;4985623;28;20507;-61
2023/12/27 03:41:50;;;;;;;4.22;1.75;;;2.00;99.90;;;;;;4986284;28;20050;-60
2023/12/27 03:44:15;;;;;;;6.07;1.45;;;2.00;99.90;;;;;;4985253;28;20094;-59
2023/12/27 03:46:41;;;;;;;4.75;1.27;;;2.00;99.90;;;;;;4984013;28;20549;-59
2023/12/27 03:49:06;;;;;;;4.35;1.33;;;2.00;99.90;;;;;;4987201;28;20026;-62
2023/12/27 03:51:32;;;;;;;7.45;1.85;;;2.00;99.90;;;;;;4986315;28;20038;-61
2023/12/27 03:53:58;;;;;;;5.38;1.42;;;1.90;99.90;;;;;;4985166;28;20058;-61
2023/12/27 03:56:24;;;;;;;8.25;1.45;;;1.90;99.90;;;;;;4987079;28;20062;-62
2023/12/27 03:58:49;;;;;;;3.80;0.77;;;1.90;99.90;;;;;;4985062;28;20580;-62
2023/12/27 04:01:20;;;;;;;5.05;1.60;;;1.90;99.90;;;;;;4986577;28;20034;-60
2023/12/27 04:03:47;;;;;;;6.65;1.30;;;1.90;99.90;;;;;;4991829;28;20053;-59
2023/12/27 04:06:17;;;;;;;7.60;1.77;;;1.90;99.90;;;;;;4987510;28;20026;-60
2023/12/27 04:08:43;;;;;;;4.78;1.27;;;1.90;99.90;;;;;;5002299;28;20117;-60
2023/12/27 04:11:09;;;;;;;5.85;1.75;;;1.90;99.90;;;;;;4983832;28;20128;-59
2023/12/27 04:13:34;;;;;;;4.18;1.33;;;1.80;99.90;;;;;;4986573;28;20030;-61
2023/12/27 04:16:00;;;;;;;3.72;1.05;;;1.80;99.90;;;;;;4985315;28;20482;-60
2023/12/27 04:18:25;;;;;;;6.90;1.90;;;1.80;99.90;;;;;;5002014;28;20038;-58
2023/12/27 04:20:51;;;;;;;9.65;1.75;;;1.80;99.90;;;;;;4986281;28;20045;-61
2023/12/27 04:23:16;;;;;;;6.32;1.30;;;1.80;99.90;;;;;;4984881;28;20040;-59
2023/12/27 04:25:42;;;;;;;2.83;1.15;;;1.80;99.90;;;;;;4986521;28;20026;-59
2023/12/27 04:28:08;;;;;;;5.40;1.23;;;1.70;99.90;;;;;;4984140;28;20027;-61
2023/12/27 04:30:33;;;;;;;2.78;1.10;;;1.70;99.90;;;;;;4983806;28;20546;-62
2023/12/27 04:32:59;;;;;;;2.35;1.10;;;1.70;99.90;;;;;;4986296;28;20092;-60
2023/12/27 04:35:24;;;;;;;3.80;0.90;;;1.60;99.90;;;;;;4987654;28;20038;-61
2023/12/27 04:37:50;;;;;;;2.80;1.05;;;1.60;99.90;;;;;;4985956;28;20030;-57
2023/12/27 04:40:15;;;;;;;3.13;1.10;;;1.60;99.90;;;;;;4987426;28;20034;-62
2023/12/27 04:42:41;;;;;;;7.07;1.45;;;1.60;99.90;;;;;;4985498;28;20062;-60
2023/12/27 04:45:07;;;;;;;3.25;1.33;;;1.50;99.90;;;;;;4988743;28;20033;-58
2023/12/27 04:47:33;;;;;;;2.55;1.25;;;1.40;99.90;;;;;;4982568;28;20038;-59
2023/12/27 04:49:58;;;;;;;3.65;1.42;;;1.40;99.90;;;;;;4982954;28;20030;-60
2023/12/27 04:52:24;;;;;;;1.23;0.70;;;1.40;99.90;;;;;;4983189;28;20478;-60
2023/12/27 04:54:49;;;;;;;8.35;1.38;;;1.30;99.90;;;;;;4981552;28;20457;-61
2023/12/27 04:57:15;;;;;;;3.10;1.40;;;1.30;99.90;;;;;;4985015;28;20121;-59
2023/12/27 04:59:40;;;;;;;1.50;0.60;;;1.30;99.90;;;;;;4985987;28;20046;-57
2023/12/27 05:02:06;;;;;;;3.15;1.30;;;1.30;99.90;;;;;;4984983;28;20065;-59
2023/12/27 05:04:31;;;;;;;3.80;0.90;;;1.30;99.90;;;;;;4982618;28;20042;-59
2023/12/27 05:06:57;;;;;;;5.60;1.30;;;1.20;99.90;;;;;;4984514;28;20145;-58
2023/12/27 05:09:23;;;;;;;5.00;1.48;;;1.30;99.90;;;;;;4985983;28;20030;-58
2023/12/27 05:11:49;;;;;;;4.88;1.02;;;1.20;99.90;;;;;;4983705;28;20027;-60
2023/12/27 05:14:16;;;;;;;5.72;1.55;;;1.20;99.90;;;;;;4985860;28;20553;-60
2023/12/27 05:16:42;;;;;;;3.45;1.55;;;1.20;99.90;;;;;;4983081;28;20077;-60
2023/12/27 05:19:07;;;;;;;4.82;1.10;;;1.20;99.90;;;;;;4999853;28;20027;-59
2023/12/27 05:21:33;;;;;;;3.65;0.98;;;1.20;99.90;;;;;;4984383;28;20116;-58
2023/12/27 05:23:58;;;;;;;5.15;1.23;;;1.20;99.90;;;;;;4985463;28;20031;-57
2023/12/27 05:26:24;;;;;;;2.15;0.85;;;1.10;99.90;;;;;;4986232;28;20560;-59
2023/12/27 05:28:49;;;;;;;3.65;1.20;;;1.10;99.90;;;;;;4985721;28;20031;-61
2023/12/27 05:31:15;;;;;;;4.93;1.10;;;1.10;99.90;;;;;;4985953;28;20105;-59
2023/12/27 05:33:40;;;;;;;4.25;1.15;;;1.10;99.90;;;;;;4984862;28;20033;-60
2023/12/27 05:36:06;;;;;;;8.30;2.00;;;1.00;99.90;;;;;;4985379;28;20057;-57
2023/12/27 05:38:32;;;;;;;1.45;0.90;;;1.00;99.90;;;;;;4984838;28;20048;-61
2023/12/27 05:40:58;;;;;;;4.20;1.00;;;1.00;99.90;;;;;;4982836;28;20031;-62
2023/12/27 05:43:23;;;;;;;2.38;1.65;;;1.00;99.90;;;;;;4984949;28;20511;-61
2023/12/27 05:45:49;;;;;;;3.70;1.75;;;1.00;99.90;;;;;;4983246;28;20053;-61
2023/12/27 05:48:15;;;;;;;3.10;0.90;;;1.00;99.90;;;;;;4982086;28;20112;-61
2023/12/27 05:50:40;;;;;;;3.28;1.00;;;1.00;99.90;;;;;;4984028;28;20050;-61
2023/12/27 05:53:06;;;;;;;4.55;1.52;;;0.90;99.90;;;;;;4985153;28;20117;-61
2023/12/27 05:55:31;;;;;;;3.22;1.13;;;0.90;99.90;;;;;;4984216;28;20430;-60
2023/12/27 05:57:57;;;;;;;3.08;1.30;;;0.90;99.90;;;;;;4994014;28;20092;-61
2023/12/27 06:00:23;;;;;;;3.95;1.38;;;0.90;99.90;;;;;;4988528;28;20457;-59
2023/12/27 06:02:49;;;;;;;5.53;1.48;;;0.90;99.90;;;;;;4984252;28;20046;-60
2023/12/27 06:05:15;;;;;;;3.72;1.35;;;0.90;99.90;;;;;;4989745;28;20114;-61
2023/12/27 06:07:40;;;;;;;4.68;1.38;;;0.80;99.90;;;;;;5002410;28;20117;-56
2023/12/27 06:10:06;;;;;;;5.38;1.50;;;0.90;99.90;;;;;;4987111;28;20065;-61
2023/12/27 06:12:32;;;;;;;3.05;1.42;;;0.80;99.90;;;;;;4992838;28;20038;-59
2023/12/27 06:14:59;;;;;;;5.30;1.63;;;0.80;99.90;;;;;;4988120;28;20622;-57
2023/12/27 06:17:25;;;;;;;2.53;1.30;;;0.80;99.90;;;;;;4985375;28;20041;-59
2023/12/27 06:19:50;;;;;;;8.95;1.83;;;0.80;99.90;;;;;;4987913;28;20031;-59
2023/12/27 06:22:16;;;;;;;2.38;1.05;;;0.80;99.90;;;;;;4986282;28;20031;-56
2023/12/27 06:24:41;;;;;;;2.33;0.98;;;0.70;99.90;;;;;;5006056;28;20374;-61
2023/12/27 06:27:07;;;;;;;4.82;1.45;;;0.70;99.90;;;;;;4988757;28;20049;-59
2023/12/27 06:29:33;;;;;;;2.72;1.48;;;0.70;99.90;;;;;;4983652;28;20034;-58
2023/12/27 06:31:59;;;;;;;1.13;1.05;;;0.70;99.90;;;;;;4990730;28;20031;-59
2023/12/27 06:34:25;;;;;;;4.82;1.17;;;0.70;99.90;;;;;;4992544;28;20053;-59
2023/12/27 06:36:51;;;;;;;2.15;1.30;;;0.70;99.90;;;;;;4987558;28;20034;-57
2023/12/27 06:39:17;;;;;;;4.07;1.60;;;0.70;99.90;;;;;;4987147;28;20031;-60
2023/12/27 06:41:42;;;;;;;3.53;1.52;;;0.70;99.90;;;;;;4986507;28;20065;-59
2023/12/27 06:44:08;;;;;;;3.75;1.17;;;0.60;99.90;;;;;;4986904;28;20031;-59
2023/12/27 06:46:33;;;;;;;3.63;1.27;;;0.60;99.90;;;;;;4986472;28;20027;-59
2023/12/27 06:48:59;;;;;;;1.65;1.00;;;0.60;99.90;;;;;;4987516;28;20030;-58
2023/12/27 06:51:24;;;;;;;2.10;1.05;;;0.60;99.90;;;;;;4990432;28;20054;-57
2023/12/27 06:53:50;;;;;;;5.72;2.17;;;0.60;99.90;;;;;;4987950;28;20034;-57
2023/12/27 06:56:16;;;;;;;5.25;1.25;;;0.60;99.90;;;;;;4984823;28;20026;-56
2023/12/27 06:58:41;;;;;;;4.25;1.33;;;0.50;99.90;;;;;;4988263;28;20029;-56
2023/12/27 07:01:07;;;;;;;2.58;1.60;;;0.50;99.90;;;;;;4985478;28;20034;-56
2023/12/27 07:03:32;;;;;;;5.85;1.63;;;0.50;99.90;;;;;;4989803;28;20029;-58
2023/12/27 07:05:58;;;;;;;1.77;1.25;;;0.50;99.90;;;;;;4994045;28;20670;-59
2023/12/27 07:08:27;;;;;;;4.07;1.80;;;0.50;99.90;;;;;;4984212;28;20030;-58
2023/12/27 07:10:52;;;;;;;2.42;1.38;;;0.50;99.90;;;;;;5004369;28;20076;-58
2023/12/27 07:13:18;;;;;;;5.13;1.35;;;0.50;99.90;;;;;;4987739;28;20499;-58
2023/12/27 07:15:43;;;;;;;5.75;1.40;;;0.50;99.90;;;;;;5002222;28;20074;-56
2023/12/27 07:18:09;;;;;;;1.98;1.30;;;0.50;99.90;;;;;;5005404;28;20042;-58
2023/12/27 07:20:34;;;;;;;3.80;1.00;;;0.40;99.90;;;;;;4995241;28;20030;-59
2023/12/27 07:23:00;;;;;;;4.30;1.48;;;0.40;99.90;;;;;;4986086;28;20027;-56
2023/12/27 07:25:26;;;;;;;2.15;0.90;;;0.40;99.90;;;;;;4984944;28;20041;-58
2023/12/27 07:27:51;;;;;;;4.82;1.33;;;0.40;99.90;;;;;;4985826;28;20106;-59
2023/12/27 07:30:17;;;;;;;4.82;1.88;;;0.40;99.90;;;;;;4984951;28;20050;-59
2023/12/27 07:32:43;;;;;;;4.28;1.95;;;0.40;99.90;;;;;;4988139;28;20490;-57
2023/12/27 07:35:08;;;;;;;2.78;1.10;;;0.40;99.90;;;;;;4985601;28;20040;-58
2023/12/27 07:37:34;;;;;;;1.52;1.38;;;0.40;99.90;;;;;;4985765;28;20023;-60
2023/12/27 07:39:59;;;;;;;1.63;1.30;;;0.40;99.90;;;;;;4990522;28;20038;-58
2023/12/27 07:42:25;;;;;;;4.15;1.02;;;0.40;99.90;;;;;;4982441;28;20045;-57
2023/12/27 07:44:51;;;;;;;3.53;1.85;;;0.40;99.90;;;;;;4985769;28;20049;-61
2023/12/27 07:47:17;;;;;;;2.97;1.25;;;0.40;99.90;;;;;;4983945;28;20022;-55
2023/12/27 07:49:43;;;;;;;5.32;1.80;;;0.40;99.90;;;;;;4988188;28;20030;-59
2023/12/27 07:52:08;;;;;;;4.50;1.70;;;0.40;99.90;;;;;;4984087;28;20077;-58
2023/12/27 07:54:37;;;;;;;5.57;1.75;;;0.40;99.90;;;;;;4984398;28;20384;-58
2023/12/27 07:57:03;;;;;;;3.05;1.75;;;0.40;99.90;;;;;;4984065;28;20081;-58
2023/12/27 07:59:28;;;;;;;1.33;1.00;;;0.40;99.90;;;;;;4984823;28;20419;-58
2023/12/27 08:01:54;;;;;;;5.72;1.50;;;0.40;99.90;;;;;;5003514;28;20088;-60
2023/12/27 08:04:20;;;;;;;2.70;1.60;;;0.40;99.90;;;;;;4984596;28;20058;-59
2023/12/27 08:06:46;;;;;;;1.38;1.15;;;0.40;99.90;;;;;;4984484;28;20027;-58
2023/12/27 08:09:12;;;;;;;7.15;2.10;;;0.40;99.90;;;;;;4982648;28;20105;-58
2023/12/27 08:11:38;;;;;;;3.17;1.63;;;0.40;99.90;;;;;;4984552;28;20118;-59
2023/12/27 08:14:03;;;;;;;3.40;1.35;;;0.40;99.90;;;;;;4986553;28;20033;-60
2023/12/27 08:16:29;;;;;;;7.28;2.20;;;0.40;99.90;;;;;;4984918;28;20088;-59
2023/12/27 08:18:54;;;;;;;7.93;2.00;;;0.40;99.90;;;;;;4987117;28;20038;-58
2023/12/27 08:21:20;;;;;;;5.72;2.20;;;0.50;99.90;;;;;;4984315;28;20435;-59
2023/12/27 08:23:46;;;;;;;3.33;2.05;;;0.40;99.90;;;;;;4986597;28;20049;-59
2023/12/27 08:26:11;;;;;;;2.67;1.65;;;0.40;99.90;;;;;;5002876;28;20145;-55
2023/12/27 08:28:37;;;;;;;2.20;1.33;;;0.40;99.90;;;;;;4983461;28;20022;-60
2023/12/27 08:31:06;;;;;;;6.97;1.67;;;0.40;99.90;;;;;;4983575;28;20486;-58
2023/12/27 08:33:35;;;;;;;4.25;1.63;;;0.50;99.90;;;;;;4982967;28;20129;-58
2023/12/27 08:36:02;;;;;;;3.92;1.80;;;0.50;99.90;;;;;;4981571;28;20030;-59
2023/12/27 08:38:28;;;;;;;6.90;2.30;;;0.50;99.90;;;;;;4983900;28;20097;-58
2023/12/27 08:40:54;;;;;;;5.18;2.47;;;0.50;99.90;;;;;;5005800;28;20539;-58
2023/12/27 08:43:20;;;;;;;2.65;1.85;;;0.60;99.90;;;;;;4985640;28;20030;-60
2023/12/27 08:45:46;;;;;;;3.22;1.75;;;0.60;99.90;;;;;;4983066;28;20364;-60
2023/12/27 08:48:12;;;;;;;8.27;2.53;;;0.60;99.90;;;;;;4984164;28;20030;-57
2023/12/27 08:50:38;;;;;;;7.15;2.30;;;0.70;99.90;;;;;;4983820;28;20419;-61
2023/12/27 08:53:04;;;;;;;3.80;1.55;;;0.70;99.90;;;;;;4983726;28;20068;-54
2023/12/27 08:55:29;;;;;;;3.42;1.83;;;0.70;99.90;;;;;;4984086;28;20031;-56
2023/12/27 08:57:55;;;;;;;4.55;2.25;;;0.80;99.90;;;;;;4984228;28;20465;-58
2023/12/27 09:00:20;;;;;;;4.30;1.60;;;0.80;99.90;;;;;;4983450;28;20460;-56
2023/12/27 09:02:49;;;;;;;3.65;2.03;;;0.80;99.90;;;;;;4984964;28;20034;-56
2023/12/27 09:05:14;;;;;;;2.58;2.17;;;0.90;99.90;;;;;;4982491;28;20037;-58
2023/12/27 09:07:40;;;;;;;3.40;1.55;;;0.90;99.90;;;;;;4983079;28;20030;-58
2023/12/27 09:10:06;;;;;;;4.35;2.17;;;0.90;99.90;;;;;;4985282;28;20031;-57
2023/12/27 09:12:32;;;;;;;5.80;2.05;;;1.00;99.90;;;;;;4982138;28;20515;-56
2023/12/27 09:14:57;;;;;;;2.85;1.70;;;1.00;99.90;;;;;;4982762;28;20030;-58
2023/12/27 09:17:23;;;;;;;3.38;1.92;;;1.00;99.90;;;;;;4984108;28;20492;-59
2023/12/27 09:19:49;;;;;;;3.45;2.03;;;1.10;99.90;;;;;;4996801;28;20451;-59
2023/12/27 09:22:14;;;;;;;4.72;2.22;;;1.10;99.90;;;;;;4984491;28;20037;-58
2023/12/27 09:24:43;;;;;;;4.53;2.13;;;1.10;99.90;;;;;;4986965;28;20110;-58
2023/12/27 09:27:12;;;;;;;6.13;1.88;;;1.20;99.90;;;;;;4985815;28;20035;-59
2023/12/27 09:29:37;;;;;;;6.47;2.08;;;1.20;99.90;;;;;;4985860;28;20081;-60
2023/12/27 09:32:05;;;;;;;5.30;2.58;;;1.20;99.90;;;;;;4984178;28;20703;-58
2023/12/27 09:34:30;;;;;;;5.35;2.22;;;1.20;99.90;;;;;;4982970;28;20026;-56
2023/12/27 09:36:56;;;;;;;7.93;2.35;;;1.30;99.90;;;;;;4982566;28;20121;-57
2023/12/27 09:39:21;;;;;;;6.15;2.55;;;1.30;99.90;;;;;;4985849;28;20042;-59
2023/12/27 09:41:47;;;;;;;8.68;3.53;;;1.30;99.90;;;;;;4987854;28;20110;-55
2023/12/27 09:44:15;;;;;;;5.47;2.65;;;1.30;99.90;;;;;;4987130;28;20026;-58
2023/12/27 09:46:40;;;;;;;8.13;3.00;;;1.30;99.90;;;;;;4985772;28;20030;-59
2023/12/27 09:49:07;;;;;;;6.55;3.38;;;1.30;99.90;;;;;;4986171;28;20022;-59
2023/12/27 09:51:34;;;;;;;7.78;4.45;;;1.40;99.90;;;;;;4986022;28;20049;-58
2023/12/27 09:53:59;;;;;;;7.03;3.72;;;1.40;99.90;;;;;;4985501;28;20034;-60
2023/12/27 09:56:27;;;;;;;6.13;3.42;;;1.50;99.90;;;;;;4988431;28;20096;-58
2023/12/27 09:58:58;;;;;;;8.30;3.90;;;1.50;99.90;;;;;;4988445;28;20018;-58
2023/12/27 10:01:24;;;;;;;11.98;4.13;;;1.50;99.90;;;;;;4986709;28;20406;-60
2023/12/27 10:03:54;;;;;;;10.40;3.63;;;1.60;99.90;;;;;;4985900;28;20288;-59
2023/12/27 10:06:29;;;;;;;5.13;3.47;;;1.60;99.90;;;;;;4986330;28;20023;-59
2023/12/27 10:08:55;;;;;;;8.43;4.00;;;1.60;99.90;;;;;;4985035;28;20077;-60
2023/12/27 10:11:22;;;;;;;7.65;3.22;;;1.60;99.90;;;;;;4986087;28;20084;-57
2023/12/27 10:13:50;;;;;;;12.07;2.92;;;1.70;99.90;;;;;;4985298;28;20014;-59
2023/12/27 10:16:15;;;;;;;5.28;3.17;;;1.70;99.90;;;;;;4986156;28;20077;-59
2023/12/27 10:18:45;;;;;;;10.55;4.20;;;1.80;99.90;;;;;;4986941;28;20023;-58
2023/12/27 10:21:11;;;;;;;8.48;5.18;;;1.80;99.90;;;;;;4984776;28;20015;-60
2023/12/27 10:23:36;;;;;;;10.68;4.28;;;1.90;99.90;;;;;;4986012;28;20034;-61
2023/12/27 10:26:03;;;;;;;6.32;3.50;;;1.90;99.90;;;;;;4987228;28;20026;-60
2023/12/27 10:28:28;;;;;;;7.18;3.60;;;1.90;99.90;;;;;;4985623;28;20097;-61
2023/12/27 10:30:54;;;;;;;4.93;2.90;;;2.00;99.90;;;;;;4986241;28;20022;-59
2023/12/27 10:33:20;;;;;;;6.90;2.88;;;2.10;99.90;;;;;;4989484;28;20171;-61
2023/12/27 10:35:49;;;;;;;7.50;3.10;;;2.10;99.90;;;;;;4984100;28;20121;-60
2023/12/27 10:38:15;;;;;;;8.23;3.05;;;2.10;99.90;;;;;;4991075;28;20072;-60
2023/12/27 10:40:41;;;;;;;7.45;3.70;;;2.20;99.90;;;;;;4986437;28;20030;-60
2023/12/27 10:43:08;;;;;;;8.93;3.95;;;2.20;99.90;;;;;;4984896;28;20038;-58
2023/12/27 10:45:35;;;;;;;7.43;3.20;;;2.30;99.90;;;;;;4987271;28;20037;-60
2023/12/27 10:48:04;;;;;;;7.93;3.65;;;2.30;99.90;;;;;;4985799;28;20026;-58
2023/12/27 10:50:31;;;;;;;6.20;3.08;;;2.30;99.90;;;;;;5002101;28;20442;-59
2023/12/27 10:53:08;;;;;;;10.32;3.78;;;2.30;99.90;;;;;;4985320;28;20022;-59
2023/12/27 10:55:35;;;;;;;7.63;3.78;;;2.40;99.90;;;;;;4982175;28;20050;-58
2023/12/27 10:58:03;;;;;;;8.10;3.95;;;2.40;99.90;;;;;;5018777;23;20046;-50
2023/12/27 11:00:29;;;;;;;12.35;3.80;;;2.50;99.90;;;;;;5009657;28;20079;-50
2023/12/27 11:02:57;;;;;;;9.63;4.00;;;2.50;99.90;;;;;;5004989;28;20056;-49
2023/12/27 11:05:24;;;;;;;7.72;3.67;;;2.50;99.90;;;;;;5008295;28;20032;-47
2023/12/27 11:07:52;;;;;;;4.55;3.08;;;2.60;99.90;;;;;;5002818;28;20266;-49
2023/12/27 11:10:19;;;;;;;10.15;4.13;;;2.60;99.90;;;;;;4985534;28;20018;-49
2023/12/27 11:12:46;;;;;;;7.20;3.65;;;2.60;99.90;;;;;;4986627;28;20182;-51
2023/12/27 11:15:18;;;;;;;8.75;3.90;;;2.60;99.90;;;;;;4984263;28;20301;-48
2023/12/27 11:17:45;;;;;;;7.65;3.25;;;2.60;99.90;;;;;;4984355;28;20027;-50
2023/12/27 11:20:16;;;;;;;7.72;3.30;;;2.70;99.90;;;;;;4986052;28;20042;-50
2023/12/27 11:22:44;;;;;;;6.45;3.42;;;2.70;99.90;;;;;;4985565;28;20068;-49
2023/12/27 11:25:11;;;;;;;7.72;3.42;;;2.70;99.90;;;;;;5007856;28;20040;-50
2023/12/27 11:27:37;;;;;;;8.88;4.00;;;2.80;99.90;;;;;;4988459;28;20034;-52
2023/12/27 11:30:08;;;;;;;9.63;3.53;;;2.80;99.90;;;;;;4987799;28;20089;-49
2023/12/27 11:32:36;;;;;;;9.38;3.78;;;2.80;99.90;;;;;;4984266;28;20026;-49
2023/12/27 11:35:01;;;;;;;13.38;4.20;;;2.80;99.90;;;;;;4988966;28;20049;-49
2023/12/27 11:37:27;;;;;;;7.10;3.38;;;2.80;99.90;;;;;;4984619;28;20064;-53
2023/12/27 11:39:53;;;;;;;6.93;3.40;;;2.80;99.90;;;;;;4984367;28;20647;-48
2023/12/27 11:42:21;;;;;;;8.43;3.17;;;2.90;99.90;;;;;;5000870;28;20038;-48
2023/12/27 11:44:48;;;;;;;13.02;3.88;;;2.80;99.90;;;;;;4983506;28;20398;-47
2023/12/27 11:47:17;;;;;;;5.70;3.25;;;2.90;99.90;;;;;;4985121;28;20049;-50
2023/12/27 11:50:04;;;;;;;6.70;3.05;;;2.80;99.90;;;;;;4984681;28;20545;-49
2023/12/27 11:52:29;;;;;;;9.82;3.35;;;2.90;99.90;;;;;;4985655;28;20077;-48
2023/12/27 11:55:13;;;;;;;7.45;3.42;;;2.90;99.90;;;;;;4982353;28;20054;-46
2023/12/27 11:57:39;;;;;;;7.20;4.43;;;2.90;99.90;;;;;;4983607;28;20568;-48
2023/12/27 12:00:05;;;;;;;9.05;3.25;;;2.90;99.90;;;;;;4983036;28;20046;-48
2023/12/27 12:02:33;;;;;;;7.72;2.97;;;2.90;99.90;;;;;;4984820;28;20518;-49
2023/12/27 12:05:25;;;;;;;7.70;3.35;;;2.90;99.90;;;;;;4985132;28;20034;-49
2023/12/27 12:08:01;;;;;;;4.65;3.40;;;2.90;99.90;;;;;;4987495;28;20030;-47
2023/12/27 12:10:27;;;;;;;3.22;2.63;;;2.90;99.90;;;;;;4985324;28;20050;-48
2023/12/27 12:12:55;;;;;;;7.50;2.70;;;2.90;99.90;;;;;;4982535;28;20042;-54
2023/12/27 12:15:24;;;;;;;6.15;3.15;;;2.90;99.90;;;;;;4985221;28;20077;-50
2023/12/27 12:17:50;;;;;;;5.80;2.40;;;2.90;99.90;;;;;;4984840;28;20045;-51
2023/12/27 12:20:16;;;;;;;5.40;2.35;;;3.00;99.90;;;;;;4981144;28;20380;-56
2023/12/27 12:22:44;;;;;;;8.23;3.13;;;3.00;99.90;;;;;;4983332;28;20089;-49
2023/12/27 12:25:09;;;;;;;5.80;2.80;;;3.00;99.90;;;;;;4984528;28;20026;-48
2023/12/27 12:27:42;;;;;;;8.45;3.08;;;3.00;99.90;;;;;;4986755;28;20044;-51
2023/12/27 12:30:08;;;;;;;3.85;2.15;;;3.00;99.90;;;;;;4985158;28;20026;-48
2023/12/27 12:32:40;;;;;;;8.88;3.72;;;3.00;99.90;;;;;;4987418;28;20031;-50
2023/12/27 12:35:07;;;;;;;7.00;2.88;;;3.00;99.90;;;;;;4985941;28;20042;-48
2023/12/27 12:37:34;;;;;;;6.53;3.08;;;3.00;99.90;;;;;;4981660;28;20057;-49
2023/12/27 12:39:59;;;;;;;4.22;2.83;;;3.00;99.90;;;;;;4986406;28;20049;-50
2023/12/27 12:42:25;;;;;;;4.50;3.22;;;3.10;99.90;;;;;;4983062;28;20490;-49
2023/12/27 12:44:51;;;;;;;7.00;2.70;;;3.10;99.90;;;;;;4983810;28;20026;-49
2023/12/27 12:47:19;;;;;;;5.45;2.55;;;3.10;99.90;;;;;;4985321;28;20113;-55
2023/12/27 12:49:44;;;;;;;8.40;2.28;;;3.10;99.90;;;;;;4997856;28;20027;-52